sensor_id;sensor_type;location;lat;lon;timestamp;pressure;altitude;pressure_sealevel;temperature
70123;BMP280;57489;37.404;24.920;2023-07-20T00:04:40;99490.03;;;31.17
70123;BMP280;57489;37.404;24.920;2023-07-20T00:09:40;99485.09;;;31.12
70123;BMP280;57489;37.404;24.920;2023-07-20T00:14:41;99491.88;;;31.04
70123;BMP280;57489;37.404;24.920;2023-07-20T00:19:41;99482.25;;;31.19
70123;BMP280;57489;37.404;24.920;2023-07-20T00:24:42;99482.34;;;31.15
70123;BMP280;57489;37.404;24.920;2023-07-20T00:29:42;99489.53;;;31.22
70123;BMP280;57489;37.404;24.920;2023-07-20T00:34:43;99479.75;;;31.28
70123;BMP280;57489;37.404;24.920;2023-07-20T00:39:43;99483.97;;;31.29
70123;BMP280;57489;37.404;24.920;2023-07-20T00:44:44;99475.44;;;31.11
70123;BMP280;57489;37.404;24.920;2023-07-20T00:49:44;99469.34;;;31.07
70123;BMP280;57489;37.404;24.920;2023-07-20T00:54:45;99467.81;;;31.06
70123;BMP280;57489;37.404;24.920;2023-07-20T00:59:45;99465.47;;;31.08
70123;BMP280;57489;37.404;24.920;2023-07-20T01:04:46;99463.41;;;30.96
70123;BMP280;57489;37.404;24.920;2023-07-20T01:14:57;99455.72;;;30.90
70123;BMP280;57489;37.404;24.920;2023-07-20T01:19:57;99454.53;;;30.91
70123;BMP280;57489;37.404;24.920;2023-07-20T01:35:43;99436.91;;;31.03
70123;BMP280;57489;37.404;24.920;2023-07-20T01:40:45;99427.16;;;31.06
70123;BMP280;57489;37.404;24.920;2023-07-20T01:45:46;99428.19;;;31.12
70123;BMP280;57489;37.404;24.920;2023-07-20T01:50:46;99421.59;;;31.13
70123;BMP280;57489;37.404;24.920;2023-07-20T01:55:47;99420.38;;;31.14
70123;BMP280;57489;37.404;24.920;2023-07-20T02:00:47;99414.56;;;31.15
70123;BMP280;57489;37.404;24.920;2023-07-20T02:05:48;99417.94;;;31.19
70123;BMP280;57489;37.404;24.920;2023-07-20T02:10:49;99410.59;;;31.20
70123;BMP280;57489;37.404;24.920;2023-07-20T02:15:49;99431.09;;;31.21
70123;BMP280;57489;37.404;24.920;2023-07-20T02:20:49;99436.53;;;31.21
70123;BMP280;57489;37.404;24.920;2023-07-20T02:25:52;99427.19;;;31.22
70123;BMP280;57489;37.404;24.920;2023-07-20T02:30:53;99431.44;;;31.23
70123;BMP280;57489;37.404;24.920;2023-07-20T02:35:53;99431.88;;;31.21
70123;BMP280;57489;37.404;24.920;2023-07-20T02:40:53;99443.56;;;31.18
70123;BMP280;57489;37.404;24.920;2023-07-20T02:45:54;99450.44;;;31.23
70123;BMP280;57489;37.404;24.920;2023-07-20T02:50:54;99435.69;;;31.24
70123;BMP280;57489;37.404;24.920;2023-07-20T02:55:55;99433.44;;;31.19
70123;BMP280;57489;37.404;24.920;2023-07-20T03:00:55;99437.28;;;31.21
70123;BMP280;57489;37.404;24.920;2023-07-20T03:05:56;99459.72;;;31.22
70123;BMP280;57489;37.404;24.920;2023-07-20T03:10:56;99476.81;;;31.19
70123;BMP280;57489;37.404;24.920;2023-07-20T03:15:56;99473.63;;;31.24
70123;BMP280;57489;37.404;24.920;2023-07-20T03:20:57;99478.38;;;31.20
70123;BMP280;57489;37.404;24.920;2023-07-20T03:25:57;99469.19;;;31.14
70123;BMP280;57489;37.404;24.920;2023-07-20T03:30:58;99466.09;;;31.15
70123;BMP280;57489;37.404;24.920;2023-07-20T03:35:59;99464.97;;;31.13
70123;BMP280;57489;37.404;24.920;2023-07-20T03:41:00;99470.94;;;31.24
70123;BMP280;57489;37.404;24.920;2023-07-20T03:46:00;99471.22;;;31.30
70123;BMP280;57489;37.404;24.920;2023-07-20T03:51:01;99491.31;;;31.32
70123;BMP280;57489;37.404;24.920;2023-07-20T03:56:01;99491.19;;;31.36
70123;BMP280;57489;37.404;24.920;2023-07-20T04:01:02;99482.50;;;31.44
70123;BMP280;57489;37.404;24.920;2023-07-20T04:06:02;99489.53;;;31.58
70123;BMP280;57489;37.404;24.920;2023-07-20T04:11:03;99494.00;;;31.68
70123;BMP280;57489;37.404;24.920;2023-07-20T04:16:04;99487.88;;;31.64
70123;BMP280;57489;37.404;24.920;2023-07-20T04:21:04;99485.94;;;31.65
70123;BMP280;57489;37.404;24.920;2023-07-20T04:26:05;99489.31;;;31.69
70123;BMP280;57489;37.404;24.920;2023-07-20T04:31:13;99484.91;;;31.75
70123;BMP280;57489;37.404;24.920;2023-07-20T04:36:13;99491.13;;;31.92
70123;BMP280;57489;37.404;24.920;2023-07-20T04:41:14;99487.81;;;32.00
70123;BMP280;57489;37.404;24.920;2023-07-20T04:46:14;99491.69;;;31.99
70123;BMP280;57489;37.404;24.920;2023-07-20T04:51:15;99494.41;;;31.99
70123;BMP280;57489;37.404;24.920;2023-07-20T04:56:15;99493.50;;;32.06
70123;BMP280;57489;37.404;24.920;2023-07-20T05:01:16;99492.97;;;32.27
70123;BMP280;57489;37.404;24.920;2023-07-20T05:06:16;99490.00;;;32.22
70123;BMP280;57489;37.404;24.920;2023-07-20T05:11:17;99487.09;;;32.29
70123;BMP280;57489;37.404;24.920;2023-07-20T05:16:17;99489.72;;;32.32
70123;BMP280;57489;37.404;24.920;2023-07-20T05:21:17;99501.28;;;32.36
70123;BMP280;57489;37.404;24.920;2023-07-20T05:26:18;99511.28;;;32.39
70123;BMP280;57489;37.404;24.920;2023-07-20T05:31:18;99513.59;;;32.41
70123;BMP280;57489;37.404;24.920;2023-07-20T05:36:19;99522.22;;;32.52
70123;BMP280;57489;37.404;24.920;2023-07-20T05:41:19;99532.75;;;32.50
70123;BMP280;57489;37.404;24.920;2023-07-20T05:46:20;99532.56;;;32.57
70123;BMP280;57489;37.404;24.920;2023-07-20T05:51:20;99551.00;;;32.66
70123;BMP280;57489;37.404;24.920;2023-07-20T05:56:20;99564.22;;;32.64
70123;BMP280;57489;37.404;24.920;2023-07-20T06:01:21;99554.63;;;32.59
70123;BMP280;57489;37.404;24.920;2023-07-20T06:06:22;99544.78;;;32.65
70123;BMP280;57489;37.404;24.920;2023-07-20T06:11:22;99548.34;;;32.62
70123;BMP280;57489;37.404;24.920;2023-07-20T06:16:22;99554.28;;;32.73
70123;BMP280;57489;37.404;24.920;2023-07-20T06:21:23;99551.66;;;32.70
70123;BMP280;57489;37.404;24.920;2023-07-20T06:26:23;99558.84;;;32.77
70123;BMP280;57489;37.404;24.920;2023-07-20T06:31:24;99565.28;;;32.83
70123;BMP280;57489;37.404;24.920;2023-07-20T06:36:24;99555.72;;;32.91
70123;BMP280;57489;37.404;24.920;2023-07-20T06:41:25;99559.75;;;32.86
70123;BMP280;57489;37.404;24.920;2023-07-20T06:46:26;99554.78;;;32.97
70123;BMP280;57489;37.404;24.920;2023-07-20T06:51:26;99551.53;;;33.02
70123;BMP280;57489;37.404;24.920;2023-07-20T06:56:27;99547.53;;;33.07
70123;BMP280;57489;37.404;24.920;2023-07-20T07:01:27;99548.09;;;33.27
70123;BMP280;57489;37.404;24.920;2023-07-20T07:06:28;99542.81;;;33.36
70123;BMP280;57489;37.404;24.920;2023-07-20T07:11:29;99558.69;;;33.63
70123;BMP280;57489;37.404;24.920;2023-07-20T07:16:29;99561.75;;;33.65
70123;BMP280;57489;37.404;24.920;2023-07-20T07:21:30;99554.03;;;33.77
70123;BMP280;57489;37.404;24.920;2023-07-20T07:26:30;99556.94;;;33.82
70123;BMP280;57489;37.404;24.920;2023-07-20T07:31:35;99546.38;;;33.97
70123;BMP280;57489;37.404;24.920;2023-07-20T07:36:36;99552.00;;;34.03
70123;BMP280;57489;37.404;24.920;2023-07-20T07:41:37;99565.63;;;34.03
70123;BMP280;57489;37.404;24.920;2023-07-20T07:46:38;99580.88;;;34.13
70123;BMP280;57489;37.404;24.920;2023-07-20T07:51:38;99588.81;;;34.07
70123;BMP280;57489;37.404;24.920;2023-07-20T07:56:39;99588.50;;;34.18
70123;BMP280;57489;37.404;24.920;2023-07-20T08:01:39;99592.19;;;34.24
70123;BMP280;57489;37.404;24.920;2023-07-20T08:06:40;99595.44;;;34.31
70123;BMP280;57489;37.404;24.920;2023-07-20T08:11:40;99587.41;;;34.28
70123;BMP280;57489;37.404;24.920;2023-07-20T08:16:41;99594.88;;;34.49
70123;BMP280;57489;37.404;24.920;2023-07-20T08:21:41;99602.06;;;34.43
70123;BMP280;57489;37.404;24.920;2023-07-20T08:26:42;99613.63;;;34.47
70123;BMP280;57489;37.404;24.920;2023-07-20T08:31:42;99603.31;;;34.64
70123;BMP280;57489;37.404;24.920;2023-07-20T08:36:43;99613.19;;;34.71
70123;BMP280;57489;37.404;24.920;2023-07-20T08:41:43;99603.59;;;34.79
70123;BMP280;57489;37.404;24.920;2023-07-20T08:46:45;99595.72;;;34.81
70123;BMP280;57489;37.404;24.920;2023-07-20T08:51:48;99600.09;;;35.00
70123;BMP280;57489;37.404;24.920;2023-07-20T08:56:49;99595.72;;;35.03
70123;BMP280;57489;37.404;24.920;2023-07-20T09:01:51;99591.44;;;35.23
70123;BMP280;57489;37.404;24.920;2023-07-20T09:06:52;99592.72;;;35.32
70123;BMP280;57489;37.404;24.920;2023-07-20T09:11:53;99589.72;;;35.39
70123;BMP280;57489;37.404;24.920;2023-07-20T09:16:54;99602.56;;;35.69
70123;BMP280;57489;37.404;24.920;2023-07-20T09:21:55;99607.41;;;35.65
70123;BMP280;57489;37.404;24.920;2023-07-20T09:26:55;99618.13;;;35.90
70123;BMP280;57489;37.404;24.920;2023-07-20T09:32:00;99626.97;;;36.04
70123;BMP280;57489;37.404;24.920;2023-07-20T09:37:01;99630.75;;;36.24
70123;BMP280;57489;37.404;24.920;2023-07-20T09:42:02;99625.91;;;35.61
70123;BMP280;57489;37.404;24.920;2023-07-20T09:47:03;99619.13;;;35.75
70123;BMP280;57489;37.404;24.920;2023-07-20T09:52:04;99604.38;;;35.63
70123;BMP280;57489;37.404;24.920;2023-07-20T09:57:07;99602.59;;;35.78
70123;BMP280;57489;37.404;24.920;2023-07-20T10:02:20;99598.38;;;35.96
70123;BMP280;57489;37.404;24.920;2023-07-20T10:07:22;99601.16;;;36.05
70123;BMP280;57489;37.404;24.920;2023-07-20T10:12:23;99605.06;;;35.85
70123;BMP280;57489;37.404;24.920;2023-07-20T10:17:25;99599.59;;;35.85
70123;BMP280;57489;37.404;24.920;2023-07-20T10:22:27;99589.56;;;35.82
70123;BMP280;57489;37.404;24.920;2023-07-20T10:27:31;99586.25;;;35.87
70123;BMP280;57489;37.404;24.920;2023-07-20T10:32:31;99578.84;;;36.06
70123;BMP280;57489;37.404;24.920;2023-07-20T10:37:50;99573.53;;;36.12
70123;BMP280;57489;37.404;24.920;2023-07-20T10:42:55;99570.38;;;36.50
70123;BMP280;57489;37.404;24.920;2023-07-20T10:47:56;99572.34;;;36.40
70123;BMP280;57489;37.404;24.920;2023-07-20T10:53:17;99579.19;;;36.36
70123;BMP280;57489;37.404;24.920;2023-07-20T10:58:17;99575.03;;;36.68
70123;BMP280;57489;37.404;24.920;2023-07-20T11:03:27;99571.38;;;36.71
70123;BMP280;57489;37.404;24.920;2023-07-20T11:08:41;99596.03;;;36.52
70123;BMP280;57489;37.404;24.920;2023-07-20T11:14:00;99599.97;;;36.33
70123;BMP280;57489;37.404;24.920;2023-07-20T11:19:01;99613.63;;;34.47
70123;BMP280;57489;37.404;24.920;2023-07-20T11:24:06;99621.75;;;33.75
70123;BMP280;57489;37.404;24.920;2023-07-20T11:29:06;99619.88;;;33.59
70123;BMP280;57489;37.404;24.920;2023-07-20T11:34:10;99605.16;;;33.44
70123;BMP280;57489;37.404;24.920;2023-07-20T11:39:13;99607.63;;;33.25
70123;BMP280;57489;37.404;24.920;2023-07-20T11:44:13;99601.16;;;33.06
70123;BMP280;57489;37.404;24.920;2023-07-20T11:49:15;99587.81;;;32.96
70123;BMP280;57489;37.404;24.920;2023-07-20T11:54:16;99585.47;;;32.98
70123;BMP280;57489;37.404;24.920;2023-07-20T11:59:18;99582.44;;;32.80
70123;BMP280;57489;37.404;24.920;2023-07-20T12:04:19;99577.50;;;32.74
70123;BMP280;57489;37.404;24.920;2023-07-20T12:09:19;99587.41;;;32.68
70123;BMP280;57489;37.404;24.920;2023-07-20T12:14:20;99583.63;;;32.95
70123;BMP280;57489;37.404;24.920;2023-07-20T12:19:20;99574.53;;;33.14
70123;BMP280;57489;37.404;24.920;2023-07-20T12:24:21;99568.78;;;32.96
70123;BMP280;57489;37.404;24.920;2023-07-20T12:29:21;99578.31;;;33.04
70123;BMP280;57489;37.404;24.920;2023-07-20T12:34:22;99569.56;;;32.96
70123;BMP280;57489;37.404;24.920;2023-07-20T12:39:22;99586.22;;;32.53
70123;BMP280;57489;37.404;24.920;2023-07-20T12:44:23;99570.69;;;32.21
70123;BMP280;57489;37.404;24.920;2023-07-20T12:49:23;99575.53;;;32.13
70123;BMP280;57489;37.404;24.920;2023-07-20T12:54:24;99570.63;;;32.08
70123;BMP280;57489;37.404;24.920;2023-07-20T12:59:24;99570.97;;;32.10
70123;BMP280;57489;37.404;24.920;2023-07-20T13:04:25;99564.03;;;32.09
70123;BMP280;57489;37.404;24.920;2023-07-20T13:09:25;99559.69;;;31.96
70123;BMP280;57489;37.404;24.920;2023-07-20T13:14:26;99546.50;;;31.94
70123;BMP280;57489;37.404;24.920;2023-07-20T13:19:26;99556.00;;;31.86
70123;BMP280;57489;37.404;24.920;2023-07-20T13:24:27;99530.81;;;31.86
70123;BMP280;57489;37.404;24.920;2023-07-20T13:29:27;99531.91;;;31.88
70123;BMP280;57489;37.404;24.920;2023-07-20T13:34:28;99537.56;;;31.77
70123;BMP280;57489;37.404;24.920;2023-07-20T13:39:30;99543.97;;;31.87
70123;BMP280;57489;37.404;24.920;2023-07-20T13:44:34;99545.41;;;31.75
70123;BMP280;57489;37.404;24.920;2023-07-20T13:49:35;99538.34;;;32.43
70123;BMP280;57489;37.404;24.920;2023-07-20T13:54:35;99530.66;;;32.09
70123;BMP280;57489;37.404;24.920;2023-07-20T13:59:36;99545.16;;;31.86
70123;BMP280;57489;37.404;24.920;2023-07-20T14:04:37;99540.13;;;31.68
70123;BMP280;57489;37.404;24.920;2023-07-20T14:09:37;99553.66;;;31.52
70123;BMP280;57489;37.404;24.920;2023-07-20T14:14:38;99555.91;;;31.53
70123;BMP280;57489;37.404;24.920;2023-07-20T14:19:38;99551.34;;;31.50
70123;BMP280;57489;37.404;24.920;2023-07-20T14:24:39;99549.13;;;31.45
70123;BMP280;57489;37.404;24.920;2023-07-20T14:29:39;99548.28;;;31.48
70123;BMP280;57489;37.404;24.920;2023-07-20T14:34:40;99541.19;;;31.55
70123;BMP280;57489;37.404;24.920;2023-07-20T14:39:40;99533.47;;;32.22
70123;BMP280;57489;37.404;24.920;2023-07-20T14:44:41;99526.75;;;32.10
70123;BMP280;57489;37.404;24.920;2023-07-20T14:49:41;99526.84;;;32.06
70123;BMP280;57489;37.404;24.920;2023-07-20T14:54:42;99518.16;;;33.02
70123;BMP280;57489;37.404;24.920;2023-07-20T14:59:42;99526.28;;;32.60
70123;BMP280;57489;37.404;24.920;2023-07-20T15:04:47;99520.72;;;32.64
70123;BMP280;57489;37.404;24.920;2023-07-20T15:09:47;99515.91;;;32.84
70123;BMP280;57489;37.404;24.920;2023-07-20T15:15:05;99512.44;;;32.55
70123;BMP280;57489;37.404;24.920;2023-07-20T15:20:09;99506.75;;;32.65
70123;BMP280;57489;37.404;24.920;2023-07-20T15:25:10;99514.69;;;32.72
70123;BMP280;57489;37.404;24.920;2023-07-20T15:30:11;99511.06;;;32.18
70123;BMP280;57489;37.404;24.920;2023-07-20T15:35:13;99504.72;;;31.56
70123;BMP280;57489;37.404;24.920;2023-07-20T15:40:13;99508.84;;;32.12
70123;BMP280;57489;37.404;24.920;2023-07-20T15:45:14;99506.63;;;31.75
70123;BMP280;57489;37.404;24.920;2023-07-20T15:50:14;99513.81;;;31.29
70123;BMP280;57489;37.404;24.920;2023-07-20T15:55:15;99515.22;;;31.53
70123;BMP280;57489;37.404;24.920;2023-07-20T16:00:16;99509.34;;;31.91
70123;BMP280;57489;37.404;24.920;2023-07-20T16:05:16;99498.00;;;31.44
70123;BMP280;57489;37.404;24.920;2023-07-20T16:10:17;99497.50;;;32.01
70123;BMP280;57489;37.404;24.920;2023-07-20T16:15:17;99487.63;;;31.59
70123;BMP280;57489;37.404;24.920;2023-07-20T16:20:18;99483.66;;;31.27
70123;BMP280;57489;37.404;24.920;2023-07-20T16:25:18;99485.09;;;32.17
70123;BMP280;57489;37.404;24.920;2023-07-20T16:30:19;99492.91;;;31.66
70123;BMP280;57489;37.404;24.920;2023-07-20T16:35:19;99495.06;;;32.07
70123;BMP280;57489;37.404;24.920;2023-07-20T16:40:20;99477.28;;;32.02
70123;BMP280;57489;37.404;24.920;2023-07-20T16:45:20;99481.91;;;32.34
70123;BMP280;57489;37.404;24.920;2023-07-20T16:50:21;99489.84;;;31.96
70123;BMP280;57489;37.404;24.920;2023-07-20T16:55:22;99494.41;;;31.99
70123;BMP280;57489;37.404;24.920;2023-07-20T17:00:23;99502.19;;;31.29
70123;BMP280;57489;37.404;24.920;2023-07-20T17:05:24;99494.94;;;31.06
70123;BMP280;57489;37.404;24.920;2023-07-20T17:10:24;99501.59;;;30.81
70123;BMP280;57489;37.404;24.920;2023-07-20T17:15:25;99496.28;;;30.74
70123;BMP280;57489;37.404;24.920;2023-07-20T17:20:25;99501.53;;;30.61
70123;BMP280;57489;37.404;24.920;2023-07-20T17:25:26;99507.50;;;30.53
70123;BMP280;57489;37.404;24.920;2023-07-20T17:30:26;99509.97;;;30.44
70123;BMP280;57489;37.404;24.920;2023-07-20T17:35:27;99513.22;;;31.58
70123;BMP280;57489;37.404;24.920;2023-07-20T17:40:28;99516.94;;;32.45
70123;BMP280;57489;37.404;24.920;2023-07-20T17:45:28;99514.91;;;32.49
70123;BMP280;57489;37.404;24.920;2023-07-20T17:50:29;99518.16;;;32.44
70123;BMP280;57489;37.404;24.920;2023-07-20T17:55:29;99527.66;;;32.36
70123;BMP280;57489;37.404;24.920;2023-07-20T18:00:30;99524.94;;;32.52
70123;BMP280;57489;37.404;24.920;2023-07-20T18:05:31;99528.47;;;32.36
70123;BMP280;57489;37.404;24.920;2023-07-20T18:10:32;99528.25;;;32.43
70123;BMP280;57489;37.404;24.920;2023-07-20T18:15:32;99532.00;;;32.50
70123;BMP280;57489;37.404;24.920;2023-07-20T18:20:33;99533.00;;;32.39
70123;BMP280;57489;37.404;24.920;2023-07-20T18:25:34;99535.91;;;32.32
70123;BMP280;57489;37.404;24.920;2023-07-20T18:30:35;99549.75;;;32.22
70123;BMP280;57489;37.404;24.920;2023-07-20T18:35:35;99550.75;;;32.11
70123;BMP280;57489;37.404;24.920;2023-07-20T18:40:36;99549.47;;;32.16
70123;BMP280;57489;37.404;24.920;2023-07-20T18:45:36;99570.81;;;32.18
70123;BMP280;57489;37.404;24.920;2023-07-20T18:50:37;99578.97;;;32.18
70123;BMP280;57489;37.404;24.920;2023-07-20T18:55:37;99578.06;;;32.21
70123;BMP280;57489;37.404;24.920;2023-07-20T19:00:38;99586.75;;;32.16
70123;BMP280;57489;37.404;24.920;2023-07-20T19:05:38;99589.44;;;32.16
70123;BMP280;57489;37.404;24.920;2023-07-20T19:10:40;99596.63;;;32.09
70123;BMP280;57489;37.404;24.920;2023-07-20T19:15:47;99595.50;;;32.23
70123;BMP280;57489;37.404;24.920;2023-07-20T19:20:48;99607.06;;;31.91
70123;BMP280;57489;37.404;24.920;2023-07-20T19:25:48;99610.28;;;31.86
70123;BMP280;57489;37.404;24.920;2023-07-20T19:30:49;99600.09;;;31.74
70123;BMP280;57489;37.404;24.920;2023-07-20T19:35:50;99611.22;;;31.79
70123;BMP280;57489;37.404;24.920;2023-07-20T19:40:51;99618.34;;;31.73
70123;BMP280;57489;37.404;24.920;2023-07-20T19:45:51;99623.81;;;31.70
70123;BMP280;57489;37.404;24.920;2023-07-20T19:50:52;99623.81;;;31.30
70123;BMP280;57489;37.404;24.920;2023-07-20T19:56:00;99635.91;;;31.45
70123;BMP280;57489;37.404;24.920;2023-07-20T20:01:00;99650.66;;;31.44
70123;BMP280;57489;37.404;24.920;2023-07-20T20:06:01;99643.88;;;30.43
70123;BMP280;57489;37.404;24.920;2023-07-20T20:11:01;99646.69;;;30.59
70123;BMP280;57489;37.404;24.920;2023-07-20T20:16:04;99656.41;;;30.29
70123;BMP280;57489;37.404;24.920;2023-07-20T20:21:04;99656.53;;;30.76
70123;BMP280;57489;37.404;24.920;2023-07-20T20:26:05;99656.94;;;30.98
70123;BMP280;57489;37.404;24.920;2023-07-20T20:31:05;99652.75;;;31.37
70123;BMP280;57489;37.404;24.920;2023-07-20T20:36:06;99646.91;;;31.38
70123;BMP280;57489;37.404;24.920;2023-07-20T20:41:07;99657.63;;;31.45
70123;BMP280;57489;37.404;24.920;2023-07-20T20:46:08;99663.88;;;31.42
70123;BMP280;57489;37.404;24.920;2023-07-20T20:51:09;99664.22;;;31.44
70123;BMP280;57489;37.404;24.920;2023-07-20T20:56:10;99660.69;;;31.47
70123;BMP280;57489;37.404;24.920;2023-07-20T21:01:10;99662.31;;;31.41
70123;BMP280;57489;37.404;24.920;2023-07-20T21:06:11;99667.50;;;31.56
70123;BMP280;57489;37.404;24.920;2023-07-20T21:11:12;99675.59;;;31.79
70123;BMP280;57489;37.404;24.920;2023-07-20T21:16:12;99675.16;;;32.00
70123;BMP280;57489;37.404;24.920;2023-07-20T21:21:13;99680.50;;;32.04
70123;BMP280;57489;37.404;24.920;2023-07-20T21:26:13;99681.56;;;31.90
70123;BMP280;57489;37.404;24.920;2023-07-20T21:31:14;99675.66;;;32.11
70123;BMP280;57489;37.404;24.920;2023-07-20T21:36:15;99676.66;;;32.01
70123;BMP280;57489;37.404;24.920;2023-07-20T21:41:15;99672.66;;;31.70
70123;BMP280;57489;37.404;24.920;2023-07-20T21:46:16;99679.84;;;31.96
70123;BMP280;57489;37.404;24.920;2023-07-20T21:51:17;99678.50;;;31.48
70123;BMP280;57489;37.404;24.920;2023-07-20T21:56:18;99666.59;;;31.62
70123;BMP280;57489;37.404;24.920;2023-07-20T22:01:18;99662.44;;;31.58
70123;BMP280;57489;37.404;24.920;2023-07-20T22:06:19;99664.38;;;31.77
70123;BMP280;57489;37.404;24.920;2023-07-20T22:11:19;99667.09;;;31.77
70123;BMP280;57489;37.404;24.920;2023-07-20T22:16:20;99662.63;;;31.67
70123;BMP280;57489;37.404;24.920;2023-07-20T22:21:21;99657.22;;;31.67
70123;BMP280;57489;37.404;24.920;2023-07-20T22:26:21;99663.91;;;31.19
70123;BMP280;57489;37.404;24.920;2023-07-20T22:31:21;99656.50;;;31.23
70123;BMP280;57489;37.404;24.920;2023-07-20T22:36:22;99649.50;;;31.22
70123;BMP280;57489;37.404;24.920;2023-07-20T22:41:22;99641.94;;;31.33
70123;BMP280;57489;37.404;24.920;2023-07-20T22:46:23;99636.06;;;31.38
70123;BMP280;57489;37.404;24.920;2023-07-20T22:51:24;99632.31;;;31.32
70123;BMP280;57489;37.404;24.920;2023-07-20T22:56:24;99638.16;;;31.50
70123;BMP280;57489;37.404;24.920;2023-07-20T23:01:24;99632.53;;;31.61
70123;BMP280;57489;37.404;24.920;2023-07-20T23:06:25;99627.63;;;31.72
70123;BMP280;57489;37.404;24.920;2023-07-20T23:11:25;99632.59;;;31.58
70123;BMP280;57489;37.404;24.920;2023-07-20T23:16:26;99638.28;;;31.43
70123;BMP280;57489;37.404;24.920;2023-07-20T23:21:26;99639.56;;;31.59
70123;BMP280;57489;37.404;24.920;2023-07-20T23:26:27;99637.53;;;31.63
70123;BMP280;57489;37.404;24.920;2023-07-20T23:31:27;99636.00;;;31.62
70123;BMP280;57489;37.404;24.920;2023-07-20T23:36:28;99636.53;;;31.53
70123;BMP280;57489;37.404;24.920;2023-07-20T23:41:28;99630.63;;;31.58
70123;BMP280;57489;37.404;24.920;2023-07-20T23:46:29;99626.31;;;31.61
70123;BMP280;57489;37.404;24.920;2023-07-20T23:51:29;99612.41;;;31.59
70123;BMP280;57489;37.404;24.920;2023-07-20T23:56:30;99612.28;;;31.66
